createdAt,value
2022-10-12T00:04:59.018Z,12.60
2022-10-12T00:10:00.418Z,16.10
2022-10-12T00:15:01.806Z,11.52
2022-10-12T00:20:04.434Z,14.77
2022-10-12T00:25:06.491Z,15.82
2022-10-12T00:30:08.548Z,13.93
2022-10-12T00:35:10.004Z,14.38
2022-10-12T00:40:11.882Z,15.15
2022-10-12T00:45:13.274Z,13.80
2022-10-12T00:50:18.016Z,15.10
2022-10-12T00:55:23.262Z,15.98
2022-10-12T01:00:25.055Z,18.08
2022-10-12T01:05:26.918Z,18.58
2022-10-12T01:10:28.665Z,15.57
2022-10-12T01:15:42.416Z,18.92
2022-10-12T01:21:10.194Z,21.13
2022-10-12T01:26:17.599Z,17.17
2022-10-12T01:31:57.562Z,17.15
2022-10-12T01:37:10.593Z,15.60
2022-10-12T01:42:19.014Z,18.05
2022-10-12T01:47:20.628Z,18.80
2022-10-12T01:52:28.190Z,19.15
2022-10-12T01:57:43.786Z,18.08
2022-10-12T02:03:10.529Z,19.80
2022-10-12T02:08:41.671Z,21.90
2022-10-12T02:13:52.583Z,18.13
2022-10-12T02:18:57.499Z,16.73
2022-10-12T02:24:05.165Z,22.30
2022-10-12T02:29:13.242Z,16.23
2022-10-12T02:34:32.369Z,19.85
2022-10-12T02:39:42.393Z,22.48
2022-10-12T02:44:45.017Z,20.10
2022-10-12T02:49:47.345Z,22.88
2022-10-12T02:54:48.769Z,16.38
2022-10-12T02:59:50.199Z,22.63
2022-10-12T03:04:51.627Z,19.80
2022-10-12T03:09:53.037Z,18.42
2022-10-12T03:14:54.426Z,21.58
2022-10-12T03:19:55.830Z,18.80
2022-10-12T03:24:57.217Z,19.70
2022-10-12T03:29:58.594Z,19.95
2022-10-12T03:34:59.992Z,20.05
2022-10-12T03:40:01.833Z,22.88
2022-10-12T03:45:03.603Z,24.23
2022-10-12T03:50:05.810Z,22.55
2022-10-12T03:55:07.528Z,22.02
2022-10-12T04:00:09.696Z,20.10
2022-10-12T04:05:14.119Z,22.77
2022-10-12T04:10:15.611Z,23.38
2022-10-12T04:15:17.133Z,21.52
2022-10-12T04:20:18.711Z,24.42
2022-10-12T04:25:20.128Z,23.52
2022-10-12T04:30:21.531Z,25.92
2022-10-12T04:35:22.951Z,27.42
2022-10-12T04:40:24.498Z,25.42
2022-10-12T04:45:25.888Z,23.95
2022-10-12T04:50:29.998Z,28.13
2022-10-12T04:55:31.707Z,26.10
2022-10-12T05:00:33.105Z,26.25
2022-10-12T05:05:34.534Z,25.38
2022-10-12T05:10:35.943Z,25.02
2022-10-12T05:15:37.326Z,24.08
2022-10-12T05:20:38.716Z,23.48
2022-10-12T05:25:40.169Z,23.80
2022-10-12T05:30:41.604Z,27.50
2022-10-12T05:35:47.479Z,28.48
2022-10-12T05:40:50.288Z,29.88
2022-10-12T05:45:51.675Z,26.08
2022-10-12T05:50:54.248Z,30.15
2022-10-12T05:55:57.734Z,30.48
2022-10-12T06:01:10.931Z,28.90
2022-10-12T06:06:12.313Z,28.25
2022-10-12T06:11:13.854Z,27.13
2022-10-12T06:16:15.261Z,27.55
2022-10-12T06:26:38.004Z,28.05
2022-10-12T06:31:39.460Z,31.45
2022-10-12T06:36:40.963Z,29.83
2022-10-12T06:41:42.367Z,28.83
2022-10-12T06:46:43.746Z,26.88
2022-10-12T06:51:45.214Z,29.35
2022-10-12T06:56:46.599Z,25.52
2022-10-12T07:01:49.029Z,24.77
2022-10-12T07:06:50.429Z,26.05
2022-10-12T07:11:51.854Z,27.60
2022-10-12T07:16:55.460Z,27.92
2022-10-12T07:21:57.062Z,27.27
2022-10-12T07:26:58.442Z,22.50
2022-10-12T07:32:00.081Z,18.77
2022-10-12T07:37:01.785Z,23.90
2022-10-12T07:42:03.487Z,20.35
2022-10-12T07:47:04.960Z,23.70
2022-10-12T07:52:06.376Z,22.27
2022-10-12T07:57:07.787Z,17.00
2022-10-12T08:02:11.703Z,19.65
2022-10-12T08:07:13.306Z,17.13
2022-10-12T08:12:14.743Z,18.00
2022-10-12T08:17:16.149Z,16.90
2022-10-12T08:22:17.550Z,18.10
2022-10-12T08:27:18.958Z,17.90
2022-10-12T08:32:20.341Z,18.38
2022-10-12T08:37:21.716Z,18.95
2022-10-12T08:42:29.058Z,15.82
2022-10-12T08:47:41.971Z,16.98
2022-10-12T08:52:52.027Z,19.85
2022-10-12T08:57:54.671Z,15.90
2022-10-12T09:03:20.547Z,15.57
2022-10-12T09:08:42.170Z,16.77
2022-10-12T09:14:02.772Z,16.77
2022-10-12T09:19:18.362Z,21.75
2022-10-12T09:24:25.247Z,18.25
2022-10-12T09:29:30.062Z,17.48
2022-10-12T09:34:32.722Z,17.80
2022-10-12T09:39:36.678Z,20.23
2022-10-12T09:45:24.154Z,15.52
2022-10-12T09:50:40.341Z,16.35
2022-10-12T09:55:52.909Z,17.45
2022-10-12T10:01:22.253Z,20.35
2022-10-12T10:06:25.018Z,19.30
2022-10-12T10:11:28.882Z,18.70
2022-10-12T10:16:30.547Z,18.58
2022-10-12T10:21:34.998Z,15.70
2022-10-12T10:26:54.892Z,15.98
2022-10-12T10:32:19.859Z,19.05
2022-10-12T10:37:23.036Z,16.70
2022-10-12T10:42:30.542Z,17.48
2022-10-12T10:47:33.923Z,14.50
2022-10-12T10:52:37.057Z,15.65
2022-10-12T10:57:44.262Z,15.63
2022-10-12T11:02:50.848Z,17.35
2022-10-12T11:08:02.451Z,18.48
2022-10-12T11:13:14.748Z,16.77
2022-10-12T11:18:30.566Z,17.13
2022-10-12T11:23:42.242Z,17.80
2022-10-12T11:28:44.215Z,16.05
2022-10-12T11:33:47.069Z,16.55
2022-10-12T11:38:54.461Z,16.77
2022-10-12T11:44:07.315Z,15.00
2022-10-12T11:49:26.146Z,16.60
2022-10-12T11:54:35.259Z,17.55
2022-10-12T11:59:52.968Z,16.23
2022-10-12T12:04:55.008Z,16.98
2022-10-12T12:09:56.735Z,18.27
2022-10-12T12:15:05.918Z,15.73
2022-10-12T12:20:44.065Z,16.92
2022-10-12T12:25:45.635Z,16.30
2022-10-12T12:31:02.577Z,13.73
2022-10-12T12:36:07.669Z,13.55
2022-10-12T12:41:18.154Z,13.90
2022-10-12T12:46:20.753Z,16.73
2022-10-12T12:51:36.744Z,17.42
2022-10-12T12:56:50.585Z,17.45
2022-10-12T13:02:29.306Z,16.15
2022-10-12T13:07:51.688Z,16.58
2022-10-12T13:12:59.174Z,18.25
2022-10-12T13:18:42.212Z,16.73
2022-10-12T13:23:41.209Z,17.20
2022-10-12T13:28:43.316Z,14.18
2022-10-12T13:33:49.355Z,13.88
2022-10-12T13:38:59.234Z,14.05
2022-10-12T13:44:04.029Z,17.75
2022-10-12T13:49:26.341Z,15.90
2022-10-12T13:54:35.395Z,15.18
2022-10-12T13:59:38.776Z,14.02
2022-10-12T14:04:42.831Z,14.10
2022-10-12T14:09:47.468Z,14.43
2022-10-12T14:14:49.763Z,14.07
2022-10-12T14:19:53.660Z,14.82
2022-10-12T14:25:14.772Z,16.77
2022-10-12T14:30:18.368Z,16.95
2022-10-12T14:35:26.527Z,14.55
2022-10-12T14:40:36.622Z,17.57
2022-10-12T14:45:38.217Z,12.95
2022-10-12T14:50:39.638Z,14.23
2022-10-12T14:55:41.997Z,13.85
2022-10-12T15:00:43.875Z,16.48
2022-10-12T15:05:45.302Z,14.68
2022-10-12T15:10:50.556Z,16.30
2022-10-12T15:15:53.552Z,18.50
2022-10-12T15:20:55.422Z,18.27
2022-10-12T15:25:56.825Z,15.43
2022-10-12T15:36:21.614Z,14.70
2022-10-12T15:41:25.697Z,19.92
2022-10-12T15:46:27.161Z,15.60
2022-10-12T15:51:28.699Z,19.50
2022-10-12T15:56:30.087Z,18.73
2022-10-12T16:01:33.675Z,18.10
2022-10-12T16:06:35.051Z,19.17
2022-10-12T16:11:36.432Z,15.95
2022-10-12T16:16:37.863Z,16.23
2022-10-12T16:21:39.279Z,16.63
2022-10-12T16:26:44.858Z,16.35
2022-10-12T16:31:46.571Z,17.83
2022-10-12T16:36:47.975Z,17.05
2022-10-12T16:41:49.387Z,15.40
2022-10-12T16:46:50.873Z,17.95
2022-10-12T16:51:52.287Z,17.10
2022-10-12T16:56:53.714Z,24.08
2022-10-12T17:01:55.131Z,18.80
2022-10-12T17:06:56.552Z,20.38
2022-10-12T17:11:57.975Z,17.55
2022-10-12T17:16:59.476Z,19.52
2022-10-12T17:22:02.428Z,16.17
2022-10-12T17:27:05.820Z,21.55
2022-10-12T17:32:09.233Z,18.83
2022-10-12T17:37:15.161Z,23.85
2022-10-12T17:42:16.925Z,19.63
2022-10-12T17:47:18.720Z,17.35
2022-10-12T17:52:20.398Z,20.05
2022-10-12T17:57:21.856Z,17.85
2022-10-12T18:02:23.290Z,19.50
2022-10-12T18:07:24.748Z,19.27
2022-10-12T18:12:26.130Z,18.35
2022-10-12T18:17:27.530Z,17.50
2022-10-12T18:22:29.386Z,21.35
2022-10-12T18:27:30.808Z,17.98
2022-10-12T18:32:32.235Z,16.60
2022-10-12T18:37:33.647Z,17.63
2022-10-12T18:42:35.060Z,17.05
2022-10-12T18:47:37.324Z,18.58
2022-10-12T18:52:38.749Z,19.38
2022-10-12T18:57:40.318Z,17.10
2022-10-12T19:02:41.763Z,21.42
2022-10-12T19:07:43.190Z,19.17
2022-10-12T19:12:45.845Z,17.25
2022-10-12T19:17:47.371Z,20.20
2022-10-12T19:22:48.824Z,19.55
2022-10-12T19:27:50.295Z,17.42
2022-10-12T19:32:51.815Z,17.85
2022-10-12T19:37:53.213Z,19.30
2022-10-12T19:42:54.598Z,19.02
2022-10-12T19:47:56.070Z,18.70
2022-10-12T19:52:57.528Z,21.85
2022-10-12T19:57:58.989Z,18.98
2022-10-12T20:03:00.510Z,22.98
2022-10-12T20:08:01.925Z,19.52
2022-10-12T20:13:03.437Z,22.63
2022-10-12T20:18:04.980Z,17.63
2022-10-12T20:23:06.417Z,25.17
2022-10-12T20:28:08.422Z,17.25
2022-10-12T20:33:10.097Z,19.23
2022-10-12T20:38:11.525Z,22.63
2022-10-12T20:43:14.465Z,20.75
2022-10-12T20:48:15.865Z,18.55
2022-10-12T20:53:17.274Z,23.23
2022-10-12T20:58:18.684Z,19.20
2022-10-12T21:03:20.088Z,19.13
2022-10-12T21:08:21.496Z,20.98
2022-10-12T21:13:22.973Z,18.38
2022-10-12T21:18:24.845Z,20.55
2022-10-12T21:23:27.294Z,18.58
2022-10-12T21:28:28.700Z,21.42
2022-10-12T21:33:30.201Z,19.33
2022-10-12T21:38:31.617Z,21.23
2022-10-12T21:43:33.427Z,19.20
2022-10-12T21:48:35.396Z,20.08
2022-10-12T21:53:38.092Z,18.20
2022-10-12T21:58:39.600Z,21.95
2022-10-12T22:03:42.459Z,19.95
2022-10-12T22:08:44.946Z,22.80
2022-10-12T22:13:52.989Z,17.95
2022-10-12T22:18:56.780Z,23.30
2022-10-12T22:24:01.927Z,21.80
2022-10-12T22:29:05.036Z,22.20
2022-10-12T22:34:06.842Z,20.08
2022-10-12T22:39:10.694Z,23.02
2022-10-12T22:44:12.072Z,21.00
2022-10-12T22:49:13.493Z,23.15
2022-10-12T22:54:14.883Z,20.73
2022-10-12T22:59:16.314Z,18.95
2022-10-12T23:04:17.719Z,20.20
2022-10-12T23:09:19.168Z,19.98
2022-10-12T23:14:20.559Z,23.30
2022-10-12T23:19:21.962Z,21.17
2022-10-12T23:24:23.380Z,21.08
2022-10-12T23:29:24.784Z,23.60
2022-10-12T23:34:26.292Z,20.45
2022-10-12T23:39:27.712Z,20.30
2022-10-12T23:44:29.116Z,19.67
2022-10-12T23:49:30.531Z,20.50
2022-10-12T23:54:35.720Z,23.88
2022-10-12T23:59:37.131Z,20.17
